Time;durP1;ratioP1;P1;durP2;ratioP2;P2;SDS_P1;SDS_P2;PMS_P1;PMS_P2;Temp;Humidity;BMP_temperature;BMP_pressure;BME280_temperature;BME280_humidity;BME280_pressure;Samples;Min_cycle;Max_cycle;Signal;HPM_P1;HPM_P2
2021/03/24 00:02:04;;;;;;;24.28;19.38;;;;;;;6.03;64.15;101176.42;122221;1152;23332;-75
2021/03/24 00:04:32;;;;;;;20.20;16.73;;;;;;;6.04;64.29;101175.45;122156;1152;22555;-74
2021/03/24 00:07:00;;;;;;;22.33;17.48;;;;;;;6.07;64.21;101174.39;122165;1152;22649;-75
2021/03/24 00:09:28;;;;;;;19.48;16.83;;;;;;;6.09;63.97;101169.84;122185;1152;23458;-75
2021/03/24 00:11:56;;;;;;;20.68;16.55;;;;;;;6.09;64.03;101168.05;122186;1152;22579;-75
2021/03/24 00:14:25;;;;;;;22.80;18.58;;;;;;;6.10;64.05;101164.50;122317;1154;22516;-75
2021/03/24 00:16:53;;;;;;;23.48;18.55;;;;;;;6.08;63.88;101168.18;122338;1152;24676;-76
2021/03/24 00:19:21;;;;;;;21.98;18.10;;;;;;;6.05;63.95;101169.25;122173;1152;22525;-75
2021/03/24 00:22:05;;;;;;;24.38;18.33;;;;;;;6.02;63.79;101172.10;122362;1152;22527;-74
2021/03/24 00:24:33;;;;;;;23.80;19.18;;;;;;;6.02;63.93;101172.10;122310;1154;24429;-74
2021/03/24 00:27:01;;;;;;;22.93;19.75;;;;;;;6.04;63.95;101170.20;122101;1155;22544;-74
2021/03/24 00:29:29;;;;;;;26.28;20.73;;;;;;;6.05;63.86;101164.00;122070;1152;24477;-74
2021/03/24 00:31:57;;;;;;;25.05;19.45;;;;;;;6.07;63.89;101169.14;122125;1152;22521;-75
2021/03/24 00:34:26;;;;;;;31.10;18.85;;;;;;;6.07;64.10;101159.48;122311;1152;22533;-74
2021/03/24 00:36:54;;;;;;;27.55;21.65;;;;;;;6.08;64.40;101163.77;122199;1152;22581;-74
2021/03/24 00:39:22;;;;;;;30.73;21.68;;;;;;;6.08;63.96;101168.18;122196;1155;22521;-74
2021/03/24 00:41:50;;;;;;;27.53;20.48;;;;;;;6.06;64.00;101162.20;122167;1154;22580;-75
2021/03/24 00:44:18;;;;;;;27.63;22.10;;;;;;;6.06;63.89;101154.34;121992;1155;24687;-75
2021/03/24 00:46:46;;;;;;;31.33;23.48;;;;;;;6.05;64.01;101160.55;122111;1152;24687;-75
2021/03/24 00:49:15;;;;;;;33.95;24.20;;;;;;;6.05;63.98;101156.13;122083;1155;22630;-75
2021/03/24 00:51:44;;;;;;;29.75;22.13;;;;;;;6.08;64.19;101152.44;122184;1152;22618;-75
2021/03/24 00:54:12;;;;;;;32.73;23.18;;;;;;;6.10;64.23;101155.80;122187;1152;22514;-75
2021/03/24 00:56:40;;;;;;;31.25;23.38;;;;;;;6.11;64.28;101155.66;122367;1153;22521;-75
2021/03/24 00:59:08;;;;;;;32.73;23.88;;;;;;;6.15;64.17;101152.80;122135;1152;22529;-75
2021/03/24 01:01:37;;;;;;;31.95;24.68;;;;;;;6.16;64.38;101157.09;122116;1154;22539;-75
2021/03/24 01:04:07;;;;;;;32.55;23.50;;;;;;;6.17;64.49;101158.77;122072;1152;22535;-75
2021/03/24 01:06:39;;;;;;;29.45;24.03;;;;;;;6.15;64.46;101160.67;122094;1154;22615;-75
2021/03/24 01:09:09;;;;;;;30.98;21.93;;;;;;;6.13;64.42;101151.14;122103;1152;22521;-75
2021/03/24 01:11:40;;;;;;;32.65;24.33;;;;;;;6.12;64.28;101156.48;122234;1154;22528;-75
2021/03/24 01:14:10;;;;;;;29.78;22.90;;;;;;;6.09;64.39;101156.73;122100;1155;22541;-74
2021/03/24 01:16:39;;;;;;;33.03;24.95;;;;;;;6.07;64.51;101156.03;122194;1152;22534;-75
2021/03/24 01:19:07;;;;;;;34.55;25.33;;;;;;;6.03;64.62;101158.06;122203;1152;22544;-75
2021/03/24 01:21:35;;;;;;;32.68;23.45;;;;;;;6.02;64.80;101153.74;122192;1152;22835;-75
2021/03/24 01:24:04;;;;;;;33.03;24.75;;;;;;;6.01;64.83;101154.70;122144;1155;22526;-74
2021/03/24 01:26:32;;;;;;;31.63;23.48;;;;;;;6.02;65.09;101148.50;122377;1154;22526;-74
2021/03/24 01:29:00;;;;;;;32.85;24.95;;;;;;;6.03;65.00;101150.19;122177;1155;22529;-75
2021/03/24 01:31:30;;;;;;;36.05;25.45;;;;;;;6.04;64.96;101151.84;122170;1152;22547;-74
2021/03/24 01:34:00;;;;;;;34.25;25.30;;;;;;;6.04;65.20;101154.47;122371;1152;22541;-74
2021/03/24 01:36:30;;;;;;;30.55;23.70;;;;;;;6.04;65.12;101153.64;122190;1152;24426;-75
2021/03/24 01:38:58;;;;;;;32.13;25.10;;;;;;;6.02;65.07;101148.50;122107;1152;23053;-74
2021/03/24 01:41:28;;;;;;;33.35;25.58;;;;;;;6.01;64.99;101159.95;122178;1151;24695;-75
2021/03/24 01:43:57;;;;;;;30.90;25.18;;;;;;;6.00;65.04;101154.81;122278;1152;23316;-75
2021/03/24 01:46:33;;;;;;;35.13;25.83;;;;;;;5.98;65.30;101149.70;122247;1155;22543;-73
2021/03/24 01:49:09;;;;;;;37.10;25.90;;;;;;;5.96;65.29;101148.97;122289;1152;22693;-73
2021/03/24 01:51:57;;;;;;;33.43;25.95;;;;;;;5.95;65.24;101152.55;122152;1152;22615;-74
2021/03/24 01:54:44;;;;;;;36.48;26.20;;;;;;;5.93;65.44;101156.23;122291;1152;22576;-74
2021/03/24 01:57:27;;;;;;;43.48;25.80;;;;;;;5.92;65.51;101144.89;122086;1154;24670;-74
2021/03/24 01:59:55;;;;;;;31.15;25.15;;;;;;;5.94;65.61;101155.31;122111;1155;23335;-74
2021/03/24 02:02:36;;;;;;;31.48;23.63;;;;;;;5.96;65.63;101162.08;122179;1155;22531;-75
2021/03/24 02:05:08;;;;;;;33.83;25.80;;;;;;;5.96;65.77;101162.08;122153;1152;22531;-74
2021/03/24 02:07:52;;;;;;;33.97;27.23;;;;;;;5.97;65.50;101161.15;122104;1152;22585;-74
2021/03/24 02:10:35;;;;;;;34.55;25.30;;;;;;;5.96;65.68;101159.45;122062;1155;22563;-75
2021/03/24 02:13:13;;;;;;;34.23;27.08;;;;;;;5.96;65.66;101158.63;121477;1155;22601;-75
2021/03/24 02:15:57;;;;;;;34.15;26.65;;;;;;;5.93;65.76;101162.34;122045;1155;25169;-74
2021/03/24 02:18:31;;;;;;;34.23;29.18;;;;;;;5.89;65.80;101159.06;121828;1155;23333;-74
2021/03/24 02:21:18;;;;;;;36.00;27.30;;;;;;;5.89;65.72;101161.69;121970;1155;24705;-75
2021/03/24 02:24:01;;;;;;;35.70;27.65;;;;;;;5.87;66.10;101160.16;121632;1158;22652;-75
2021/03/24 02:27:03;;;;;;;32.83;24.85;;;;;;;5.86;65.99;101161.09;121631;1155;23342;-74
2021/03/24 02:29:34;;;;;;;;;;;;;;;5.81;65.71;101169.31;122058;1156;22578;-74
2021/03/24 02:32:04;;;;;;;32.70;23.98;;;;;;;5.79;66.09;101170.38;122450;1152;21337;-75
2021/03/24 02:34:36;;;;;;;30.73;24.78;;;;;;;5.82;66.32;101164.90;122189;1154;22622;-73
2021/03/24 02:37:05;;;;;;;32.40;23.70;;;;;;;5.82;66.18;101155.24;122237;1152;22531;-74
2021/03/24 02:39:34;;;;;;;30.78;25.88;;;;;;;5.83;66.07;101161.31;122229;1152;22651;-73
2021/03/24 02:42:05;;;;;;;31.53;23.85;;;;;;;5.84;65.92;101168.25;122249;1152;22539;-73
2021/03/24 02:44:35;;;;;;;32.73;24.20;;;;;;;5.81;65.78;101161.45;122165;1155;24432;-73
2021/03/24 02:47:06;;;;;;;28.80;24.35;;;;;;;5.79;66.11;101167.75;122223;1152;22576;-74
2021/03/24 02:49:37;;;;;;;32.03;22.23;;;;;;;5.78;65.91;101158.23;122165;1152;22543;-73
2021/03/24 02:52:06;;;;;;;34.33;24.80;;;;;;;5.79;66.22;101152.85;122191;1152;22531;-75
2021/03/24 02:54:35;;;;;;;30.48;24.00;;;;;;;5.80;66.03;101158.95;122167;1152;22611;-73
2021/03/24 02:57:04;;;;;;;29.78;22.63;;;;;;;5.81;65.92;101160.62;122240;1152;22839;-73
2021/03/24 02:59:32;;;;;;;26.10;22.18;;;;;;;5.81;66.06;101164.07;122097;1152;22527;-73
2021/03/24 03:02:15;;;;;;;30.85;22.50;;;;;;;5.83;65.87;101154.31;122078;1152;22521;-74
2021/03/24 03:04:50;;;;;;;28.98;22.05;;;;;;;5.82;66.23;101157.03;122111;1152;22540;-74
2021/03/24 03:07:28;;;;;;;33.23;23.85;;;;;;;5.83;65.96;101154.31;121638;1155;22571;-73
2021/03/24 03:10:11;;;;;;;28.45;20.58;;;;;;;5.81;65.93;101155.38;122020;1155;22619;-74
2021/03/24 03:13:25;;;;;;;28.45;22.03;;;;;;;5.78;66.04;101158.23;121693;1155;22707;-74
2021/03/24 03:16:11;;;;;;;29.65;22.30;;;;;;;5.73;66.06;101158.59;121614;1155;22596;-74
2021/03/24 03:19:08;;;;;;;30.55;23.18;;;;;;;5.70;66.02;101156.20;122069;1155;22570;-74
2021/03/24 03:21:48;;;;;;;27.68;21.38;;;;;;;5.68;65.98;101157.26;121709;1157;24706;-74
2021/03/24 03:24:47;;;;;;;30.75;21.30;;;;;;;5.69;66.17;101156.30;121593;1157;22558;-74
2021/03/24 03:27:19;;;;;;;27.18;20.55;;;;;;;5.70;66.05;101156.20;122049;1155;22557;-74
2021/03/24 03:29:49;;;;;;;25.50;20.90;;;;;;;5.72;65.98;101159.52;122061;1155;22553;-74
2021/03/24 03:32:21;;;;;;;31.93;21.85;;;;;;;5.75;66.04;101158.46;122207;1152;23600;-74
2021/03/24 03:35:18;;;;;;;31.20;22.10;;;;;;;5.78;66.20;101155.61;122210;1152;23422;-74
2021/03/24 03:37:51;;;;;;;29.60;23.58;;;;;;;5.77;65.92;101160.02;122136;1154;22886;-76
2021/03/24 03:40:23;;;;;;;28.75;22.28;;;;;;;5.79;66.03;101157.27;122160;1152;22687;-74
2021/03/24 03:42:54;;;;;;;29.58;22.85;;;;;;;5.81;65.96;101152.75;122214;1152;24429;-74
2021/03/24 03:45:24;;;;;;;28.65;23.40;;;;;;;5.79;65.94;101160.72;122158;1152;23133;-74
2021/03/24 03:47:53;;;;;;;29.85;22.50;;;;;;;5.76;65.89;101154.88;122153;1152;22543;-74
2021/03/24 03:50:25;;;;;;;31.10;22.70;;;;;;;5.72;66.03;101156.89;122070;1155;23560;-75
2021/03/24 03:53:32;;;;;;;34.80;24.30;;;;;;;5.73;66.09;101157.73;122112;1152;22538;-75
2021/03/24 03:56:51;;;;;;;34.35;22.93;;;;;;;5.72;66.19;101153.45;122096;1152;24541;-74
2021/03/24 03:59:38;;;;;;;30.20;22.65;;;;;;;5.72;66.35;101142.96;122289;1152;25927;-74
2021/03/24 04:02:11;;;;;;;29.30;22.30;;;;;;;5.74;66.29;101141.90;122055;1155;24461;-73
2021/03/24 04:04:50;;;;;;;28.30;22.70;;;;;;;5.76;66.25;101147.02;122025;1155;22636;-73
2021/03/24 04:07:29;;;;;;;29.80;22.17;;;;;;;5.76;66.13;101145.22;121994;1155;22559;-74
2021/03/24 04:09:59;;;;;;;29.38;22.30;;;;;;;5.76;66.10;101144.39;122043;1155;23317;-73
2021/03/24 04:12:29;;;;;;;34.03;23.05;;;;;;;5.77;65.94;101154.78;121980;1155;22652;-74
2021/03/24 04:15:00;;;;;;;29.88;22.68;;;;;;;5.78;66.41;101159.06;122148;1155;22616;-74
2021/03/24 04:17:34;;;;;;;31.55;22.13;;;;;;;5.80;66.27;101153.72;121559;1158;22630;-74
2021/03/24 04:20:06;;;;;;;29.75;21.43;;;;;;;5.77;65.98;101157.39;121608;1158;24833;-74
2021/03/24 04:22:35;;;;;;;32.20;22.40;;;;;;;5.77;66.51;101148.70;121555;1155;22578;-74
2021/03/24 04:25:25;;;;;;;28.75;21.40;;;;;;;5.77;66.05;101156.56;121542;1155;23489;-74
2021/03/24 04:27:57;;;;;;;29.35;20.63;;;;;;;5.77;66.21;101159.19;121652;1155;22588;-74
2021/03/24 04:30:38;;;;;;;;;;;;;;;5.75;66.20;101154.05;121917;1159;24865;-74
2021/03/24 04:33:09;;;;;;;31.73;24.10;;;;;;;5.73;66.26;101155.11;121961;1157;21352;-74
2021/03/24 04:35:39;;;;;;;32.40;24.68;;;;;;;5.75;66.30;101156.67;122144;1152;22569;-74
2021/03/24 04:38:28;;;;;;;32.85;24.05;;;;;;;5.79;66.66;101159.89;122101;1155;22860;-74
2021/03/24 04:41:04;;;;;;;29.15;23.53;;;;;;;5.80;66.43;101151.92;122167;1153;23469;-74
2021/03/24 04:43:40;;;;;;;33.93;25.40;;;;;;;5.83;66.45;101162.17;121972;1155;24719;-74
2021/03/24 04:46:17;;;;;;;31.48;24.25;;;;;;;5.82;66.25;101160.48;121459;1159;25189;-75
2021/03/24 04:48:57;;;;;;;27.75;21.65;;;;;;;5.79;66.16;101163.34;121488;1158;22565;-75
2021/03/24 04:51:37;;;;;;;32.73;24.67;;;;;;;5.77;66.03;101162.64;121281;1158;22564;-74
2021/03/24 04:54:31;;;;;;;32.70;23.73;;;;;;;5.75;66.23;101161.08;121464;1159;22626;-75
2021/03/24 04:57:08;;;;;;;31.43;22.90;;;;;;;5.72;66.44;101163.93;121444;1159;23352;-75
2021/03/24 04:59:42;;;;;;;31.48;23.65;;;;;;;5.72;66.28;101171.80;121188;1158;22571;-75
2021/03/24 05:02:23;;;;;;;34.93;24.65;;;;;;;5.72;66.46;101175.25;121354;1158;22552;-75
2021/03/24 05:04:57;;;;;;;34.03;25.53;;;;;;;5.72;66.70;101183.11;121507;1155;23342;-74
2021/03/24 05:07:49;;;;;;;34.10;23.00;;;;;;;5.74;66.46;101183.02;121558;1156;22559;-75
2021/03/24 05:10:22;;;;;;;33.73;22.80;;;;;;;5.74;66.63;101181.22;122010;1154;24728;-75
2021/03/24 05:18:12;;;;;;;30.63;23.18;;;;;;;5.66;66.75;101183.58;122347;1151;22921;-76
2021/03/24 05:20:55;;;;;;;35.67;25.73;;;;;;;5.69;66.73;101190.38;122150;1155;22653;-75
2021/03/24 05:23:24;;;;;;;31.60;23.17;;;;;;;5.68;66.55;101194.79;122171;1150;22540;-75
2021/03/24 05:26:20;;;;;;;27.25;22.70;;;;;;;5.68;66.60;101193.95;121611;1155;22554;-76
2021/03/24 05:28:53;;;;;;;34.35;22.68;;;;;;;5.65;66.45;101190.61;121713;1155;22614;-74
2021/03/24 05:31:27;;;;;;;34.20;24.30;;;;;;;5.65;66.52;101193.23;121644;1155;22572;-74
2021/03/24 05:34:18;;;;;;;31.10;22.63;;;;;;;5.66;66.66;101197.55;121631;1155;23598;-75
2021/03/24 05:36:49;;;;;;;34.30;24.40;;;;;;;5.66;66.56;101197.55;121595;1155;23118;-75
2021/03/24 05:39:31;;;;;;;29.00;21.58;;;;;;;5.70;66.64;101199.91;121681;1155;22552;-74
2021/03/24 05:42:41;;;;;;;27.75;20.40;;;;;;;5.70;66.50;101197.28;121638;1155;22574;-74
2021/03/24 05:45:27;;;;;;;30.90;22.93;;;;;;;5.68;66.54;101194.79;121460;1157;22620;-74
2021/03/24 05:48:50;;;;;;;31.00;22.35;;;;;;;5.68;66.62;101199.20;121588;1156;22576;-74
2021/03/24 05:52:04;;;;;;;27.28;21.45;;;;;;;5.66;66.64;101199.30;121637;1155;22634;-74
2021/03/24 05:54:55;;;;;;;30.30;22.65;;;;;;;5.64;66.85;101202.05;121076;1159;22770;-74
2021/03/24 05:58:19;;;;;;;26.38;22.58;;;;;;;5.67;66.59;101203.61;121119;1161;22625;-74
2021/03/24 06:01:13;;;;;;;33.10;24.13;;;;;;;5.67;66.61;101198.38;120563;1164;22587;-74
2021/03/24 06:04:15;;;;;;;30.35;24.15;;;;;;;5.68;66.51;101205.27;120615;1164;22585;-74
2021/03/24 06:07:34;;;;;;;30.73;24.08;;;;;;;5.69;66.67;101211.35;120625;1164;22596;-74
2021/03/24 06:10:14;;;;;;;29.00;21.85;;;;;;;5.72;66.67;101211.95;120767;1167;22692;-74
2021/03/24 06:13:04;;;;;;;30.10;22.17;;;;;;;5.78;66.72;101215.91;120832;1165;22583;-74
2021/03/24 06:15:59;;;;;;;26.28;20.85;;;;;;;5.81;66.76;101216.52;120678;1164;24727;-74
2021/03/24 06:18:45;;;;;;;28.60;21.20;;;;;;;5.84;66.69;101208.41;120710;1164;23899;-74
2021/03/24 06:21:46;;;;;;;29.38;23.00;;;;;;;5.87;66.68;101217.84;120609;1164;23055;-75
2021/03/24 06:25:12;;;;;;;26.85;21.28;;;;;;;5.89;66.58;101216.75;120884;1164;22634;-75
2021/03/24 06:28:12;;;;;;;30.83;23.10;;;;;;;5.91;66.39;101214.03;120945;1161;22579;-74
2021/03/24 06:31:22;;;;;;;163.00;39.38;;;;;;;5.91;66.27;101214.03;120850;1164;22575;-74
2021/03/24 06:34:46;;;;;;;30.25;22.30;;;;;;;5.88;66.25;101214.27;120729;1164;22699;-74
2021/03/24 06:37:56;;;;;;;33.15;23.20;;;;;;;5.86;66.18;101210.91;121044;1159;24554;-74
2021/03/24 06:40:43;;;;;;;31.08;23.38;;;;;;;5.85;66.11;101214.49;121149;1161;25064;-74
2021/03/24 06:43:39;;;;;;;28.13;20.00;;;;;;;5.84;66.31;101216.28;120849;1166;22647;-74
2021/03/24 06:46:32;;;;;;;33.90;23.63;;;;;;;5.88;66.47;101219.50;120651;1162;22659;-74
2021/03/24 06:49:37;;;;;;;31.15;23.30;;;;;;;5.90;66.40;101225.48;120806;1166;22693;-74
2021/03/24 06:52:27;;;;;;;29.40;22.30;;;;;;;5.94;66.14;101220.88;120744;1164;24773;-75
2021/03/24 06:55:36;;;;;;;30.07;23.07;;;;;;;5.97;66.38;101224.09;120560;1168;22603;-74
2021/03/24 06:58:23;;;;;;;30.33;24.00;;;;;;;6.03;66.44;101230.64;120579;1165;25543;-75
2021/03/24 07:01:15;;;;;;;37.20;24.67;;;;;;;6.05;66.36;101229.58;120625;1164;22595;-74
2021/03/24 07:04:28;;;;;;;32.25;24.00;;;;;;;6.04;66.01;101237.58;120625;1164;23804;-74
2021/03/24 07:07:10;;;;;;;27.60;22.30;;;;;;;6.02;66.06;101229.80;120615;1163;22820;-74
2021/03/24 07:09:59;;;;;;;29.90;22.73;;;;;;;6.04;65.86;101233.16;120991;1161;24477;-74
2021/03/24 07:13:10;;;;;;;36.20;23.00;;;;;;;6.07;66.00;101239.97;121159;1161;22571;-74
2021/03/24 07:16:20;;;;;;;28.73;22.73;;;;;;;6.08;65.99;101231.97;121427;1159;22648;-75
2021/03/24 07:19:46;;;;;;;26.53;21.13;;;;;;;6.08;65.73;101237.22;121490;1155;22574;-75
2021/03/24 07:22:37;;;;;;;37.90;25.38;;;;;;;6.09;65.79;101233.63;121431;1158;22561;-74
2021/03/24 07:25:43;;;;;;;38.60;25.90;;;;;;;6.10;65.93;101232.70;121401;1159;22582;-74
2021/03/24 07:28:33;;;;;;;36.35;26.23;;;;;;;6.11;66.10;101244.85;121511;1158;22781;-75
2021/03/24 07:31:39;;;;;;;34.40;25.40;;;;;;;6.19;66.11;101246.05;121554;1158;24545;-79
2021/03/24 07:34:35;;;;;;;34.05;24.88;;;;;;;6.22;66.03;101249.27;121636;1156;22901;-80
2021/03/24 07:37:46;;;;;;;32.28;24.35;;;;;;;6.27;66.13;101248.94;121645;1157;24543;-78
2021/03/24 07:40:54;;;;;;;31.40;23.60;;;;;;;6.26;66.09;101253.33;121558;1156;22621;-81
2021/03/24 07:43:35;;;;;;;35.60;27.83;;;;;;;6.31;65.79;101255.62;121911;1158;22559;-77
2021/03/24 07:46:13;;;;;;;36.55;28.60;;;;;;;6.35;66.12;101264.92;121754;1156;22631;-77
2021/03/24 07:49:00;;;;;;;39.65;29.43;;;;;;;6.39;65.91;101255.84;121854;1158;22619;-77
2021/03/24 07:52:10;;;;;;;40.15;29.98;;;;;;;6.42;65.95;101260.86;121550;1158;23464;-76
2021/03/24 07:55:03;;;;;;;42.43;31.43;;;;;;;6.48;66.04;101257.77;121487;1158;22799;-77
2021/03/24 07:58:10;;;;;;;;;;;;;;;6.52;65.67;101247.86;122455;1156;22650;-78
2021/03/24 08:01:07;;;;;;;43.05;31.35;;;;;;;6.51;65.96;101257.53;122164;1152;21349;-77
2021/03/24 08:03:51;;;;;;;36.70;27.93;;;;;;;6.61;65.99;101255.03;122233;1155;24703;-77
2021/03/24 08:07:13;;;;;;;34.60;27.43;;;;;;;6.68;65.92;101255.38;121523;1158;25195;-77
2021/03/24 08:10:15;;;;;;;34.93;27.03;;;;;;;6.75;65.48;101254.77;121021;1160;22710;-77
2021/03/24 08:13:18;;;;;;;36.80;29.07;;;;;;;6.77;65.34;101255.50;121029;1161;24568;-77
2021/03/24 08:16:07;;;;;;;;;;;;;;;6.74;65.30;101254.91;121161;1162;22631;-77
2021/03/24 08:18:50;;;;;;;39.90;26.83;;;;;;;6.73;65.36;101256.70;121087;1161;23239;-78
2021/03/24 08:21:30;;;;;;;45.50;27.28;;;;;;;6.78;65.35;101249.28;121156;1161;22564;-77
2021/03/24 08:24:11;;;;;;;40.95;29.40;;;;;;;6.83;65.45;101252.39;121178;1158;22606;-77
2021/03/24 08:27:07;;;;;;;34.80;26.48;;;;;;;6.90;65.11;101251.88;121539;1156;22562;-76
2021/03/24 08:31:24;;;;;;;;;;;;;;;;;;;;;
2021/03/24 08:34:41;;;;;;;33.18;25.88;;;;;;;6.94;65.02;101248.91;121519;1158;22628;-76
2021/03/24 08:38:40;;;;;;;35.63;26.27;;;;;;;7.01;65.04;101255.33;121206;1158;22582;-76
2021/03/24 08:43:02;;;;;;;45.38;27.70;;;;;;;6.99;64.83;101249.36;121154;1160;24303;-77
2021/03/24 08:46:27;;;;;;;;;;;;;;;;;;;;;
2021/03/24 08:49:52;;;;;;;37.20;29.00;;;;;;;6.97;64.63;101251.29;120367;1171;22613;-80
2021/03/24 08:53:26;;;;;;;;;;;;;;;;;;;;;
2021/03/24 08:57:16;;;;;;;39.90;31.90;;;;;;;7.05;64.66;101237.53;120213;1174;22701;-77
2021/03/24 09:00:31;;;;;;;41.00;33.10;;;;;;;7.14;64.83;101243.85;120178;1172;22658;-75
2021/03/24 09:03:55;;;;;;;37.60;28.20;;;;;;;7.22;64.72;101244.05;120148;1174;22652;-77
2021/03/24 09:07:31;;;;;;;;;;;;;;;;;;;;;
2021/03/24 09:15:11;;;;;;;36.25;28.55;;;;;;;7.24;64.29;101244.77;122454;1148;22539;-74
2021/03/24 09:18:08;;;;;;;53.40;37.57;;;;;;;7.25;64.18;101247.27;122443;1152;22543;-76
2021/03/24 09:21:18;;;;;;;55.20;39.18;;;;;;;7.27;64.06;101253.25;122135;1155;22986;-75
2021/03/24 09:24:58;;;;;;;;;;;;;;;;;;;;;
2021/03/24 09:28:31;;;;;;;36.28;28.05;;;;;;;7.35;64.30;101254.41;122050;1155;22555;-77
2021/03/24 09:31:50;;;;;;;32.78;25.55;;;;;;;7.44;64.33;101259.76;121854;1155;22559;-76
2021/03/24 09:34:58;;;;;;;28.40;24.28;;;;;;;7.54;63.94;101252.78;122042;1155;22601;-76
2021/03/24 09:38:01;;;;;;;26.83;21.73;;;;;;;7.65;63.46;101248.44;121742;1155;25173;-77
2021/03/24 09:40:52;;;;;;;28.85;25.03;;;;;;;7.78;63.60;101254.34;121839;1155;23134;-73
2021/03/24 09:43:41;;;;;;;29.50;25.65;;;;;;;7.87;63.25;101252.77;121490;1158;24560;-74
2021/03/24 09:46:35;;;;;;;36.33;26.78;;;;;;;7.97;62.98;101253.66;121511;1155;22548;-75
2021/03/24 09:50:06;;;;;;;32.30;21.90;;;;;;;7.93;62.33;101242.56;121438;1158;22564;-77
2021/03/24 09:53:24;;;;;;;26.85;23.48;;;;;;;7.96;61.91;101247.56;121196;1158;23023;-77
2021/03/24 09:55:55;;;;;;;30.08;25.70;;;;;;;7.95;62.47;101243.24;121474;1158;25463;-74
2021/03/24 09:58:59;;;;;;;40.25;26.80;;;;;;;7.97;62.38;101243.96;121466;1158;22911;-73
2021/03/24 10:01:53;;;;;;;28.20;24.13;;;;;;;8.00;62.37;101241.08;121643;1156;22574;-73
2021/03/24 10:05:00;;;;;;;32.48;23.05;;;;;;;8.07;62.54;101241.39;121695;1155;22662;-74
2021/03/24 10:07:37;;;;;;;30.55;23.85;;;;;;;8.14;62.42;101241.70;121227;1158;22661;-74
2021/03/24 10:10:25;;;;;;;33.48;26.48;;;;;;;8.19;62.22;101250.03;121253;1158;22581;-77
2021/03/24 10:13:24;;;;;;;30.50;24.58;;;;;;;8.18;61.78;101243.94;121316;1155;22549;-75
2021/03/24 10:16:28;;;;;;;27.88;24.85;;;;;;;8.16;61.83;101237.98;121683;1155;22541;-76
2021/03/24 10:19:41;;;;;;;31.95;26.90;;;;;;;8.20;61.76;101238.56;121771;1155;22574;-77
2021/03/24 10:22:57;;;;;;;27.75;24.25;;;;;;;8.17;61.72;101226.48;121902;1155;24452;-78
2021/03/24 10:25:45;;;;;;;29.45;24.45;;;;;;;8.20;61.56;101228.86;121770;1155;22649;-77
2021/03/24 10:33:12;;;;;;;31.13;25.58;;;;;;;8.15;61.50;101227.58;121162;1160;22595;-74
2021/03/24 10:36:40;;;;;;;29.00;24.05;;;;;;;8.17;61.85;101228.28;121067;1161;24151;-78
2021/03/24 10:40:11;;;;;;;;;;;;;;;;;;;;;
2021/03/24 10:43:59;;;;;;;30.05;22.95;;;;;;;8.25;61.56;101229.28;120754;1163;25898;-77
2021/03/24 10:47:04;;;;;;;30.30;24.10;;;;;;;8.31;61.39;101219.20;120826;1164;24780;-77
2021/03/24 10:51:25;;;;;;;;;;;;;;;;;;;;;
2021/03/24 10:54:55;;;;;;;37.55;30.20;;;;;;;8.36;61.39;101222.27;120648;1168;24773;-77
2021/03/24 10:58:33;;;;;;;37.10;30.30;;;;;;;8.37;61.08;101214.25;120523;1168;22678;-76
2021/03/24 11:02:19;;;;;;;;;;;;;;;;;;;;;
2021/03/24 11:05:15;;;;;;;39.60;28.90;;;;;;;8.40;61.16;101213.19;120263;1171;22738;-77
2021/03/24 11:08:41;;;;;;;26.40;23.70;;;;;;;8.44;60.85;101204.88;120573;1171;22633;-80
2021/03/24 11:12:26;;;;;;;;;;;;;;;;;;;;;
2021/03/24 11:15:55;;;;;;;27.23;21.33;;;;;;;8.30;60.15;101204.36;120836;1167;22644;-79
2021/03/24 11:19:36;;;;;;;26.13;23.23;;;;;;;8.29;60.46;101200.89;120616;1166;25204;-77
2021/03/24 11:23:21;;;;;;;33.70;28.70;;;;;;;8.32;60.11;101203.27;120268;1171;22692;-77
2021/03/24 11:26:47;;;;;;;;;;;;;;;;;;;;;
2021/03/24 11:30:17;;;;;;;30.35;24.70;;;;;;;8.31;60.29;101198.15;120375;1169;21477;-76
2021/03/24 11:34:14;;;;;;;;;;;;;;;;;;;;;
2021/03/24 11:37:30;;;;;;;;;;;;;;;8.40;59.54;101200.03;120411;1171;22625;-76
2021/03/24 11:41:23;;;;;;;;;;;;;;;;;;;;;
2021/03/24 11:45:13;;;;;;;;;;;;;;;;;;;;;
2021/03/24 11:49:10;;;;;;;40.15;30.20;;;;;;;8.51;60.34;101184.11;120604;1165;22745;-78
2021/03/24 11:52:28;;;;;;;;;;;;;;;;;;;;;
2021/03/24 11:56:17;;;;;;;32.70;28.70;;;;;;;8.79;59.83;101171.14;120572;1168;24074;-76
2021/03/24 11:59:42;;;;;;;;;;;;;;;;;;;;;
2021/03/24 12:03:12;;;;;;;28.48;25.40;;;;;;;8.75;59.06;101180.30;120580;1168;24787;-76
2021/03/24 12:07:33;;;;;;;;;;;;;;;;;;;;;
2021/03/24 12:11:12;;;;;;;;;;;;;;;;;;;;;
2021/03/24 12:14:35;;;;;;;36.90;24.35;;;;;;;8.62;58.98;101165.56;120497;1168;23166;-76
2021/03/24 12:18:42;;;;;;;28.80;25.80;;;;;;;8.55;58.76;101171.52;120571;1168;22633;-77
2021/03/24 12:23:24;;;;;;;;;;;;;;;;;;;;;
2021/03/24 12:26:49;;;;;;;;;;;;;;;;;;;;;
2021/03/24 12:31:10;;;;;;;40.00;35.20;;;;;;;8.24;59.15;101169.72;120243;1174;23052;-76
2021/03/24 12:35:05;;;;;;;;;;;;;;;;;;;;;
2021/03/24 12:37:55;;;;;;;35.90;32.00;;;;;;;8.27;59.94;101154.63;120087;1174;23137;-76
2021/03/24 12:40:44;;;;;;;;;;;;;;;;;;;;;
2021/03/24 12:44:44;;;;;;;40.00;34.40;;;;;;;8.24;59.98;101158.36;120208;1172;22698;-78
2021/03/24 12:51:59;;;;;;;36.80;31.10;;;;;;;8.18;60.13;101151.81;120680;1164;22613;-76
2021/03/24 12:55:36;;;;;;;;;;;;;;;;;;;;;
2021/03/24 12:59:03;;;;;;;36.77;32.83;;;;;;;8.10;60.42;101148.20;120840;1164;23462;-76
2021/03/24 13:01:53;;;;;;;43.25;34.48;;;;;;;8.05;60.32;101145.94;121057;1161;22602;-77
2021/03/24 13:04:57;;;;;;;46.03;36.77;;;;;;;8.01;60.44;101147.17;121386;1158;22644;-77
2021/03/24 13:08:12;;;;;;;38.18;34.28;;;;;;;8.01;60.71;101148.01;121526;1158;25273;-78
2021/03/24 13:11:09;;;;;;;37.60;33.53;;;;;;;8.04;60.47;101138.20;121535;1158;22865;-78
2021/03/24 13:14:25;;;;;;;39.93;35.13;;;;;;;8.02;60.52;101138.31;121568;1156;22588;-79
2021/03/24 13:18:05;;;;;;;36.98;32.95;;;;;;;7.96;60.41;101142.33;121975;1158;24712;-82
2021/03/24 13:21:06;;;;;;;39.10;34.53;;;;;;;7.95;60.79;101130.11;121126;1162;23066;-78
2021/03/24 13:23:56;;;;;;;38.83;33.65;;;;;;;7.94;60.44;101135.52;121457;1158;22594;-77
2021/03/24 13:26:37;;;;;;;42.38;33.40;;;;;;;7.93;60.64;101126.80;121186;1160;24405;-78
2021/03/24 13:29:38;;;;;;;47.00;33.70;;;;;;;7.97;60.60;101127.36;121206;1159;22658;-77
2021/03/24 13:32:35;;;;;;;34.88;31.10;;;;;;;7.96;60.53;101128.30;121315;1159;22560;-78
2021/03/24 13:35:34;;;;;;;42.43;33.73;;;;;;;7.97;60.51;101128.19;121448;1158;22545;-75
2021/03/24 13:38:07;;;;;;;41.30;34.23;;;;;;;8.02;60.84;101131.24;121218;1160;22552;-76
2021/03/24 13:40:37;;;;;;;44.48;34.75;;;;;;;8.10;60.64;101121.88;121100;1161;23080;-74
2021/03/24 13:43:26;;;;;;;32.90;29.38;;;;;;;8.10;60.41;101125.34;121179;1161;22573;-75
2021/03/24 13:46:05;;;;;;;35.13;31.38;;;;;;;8.07;60.24;101122.97;121136;1161;22582;-74
2021/03/24 13:48:54;;;;;;;40.85;36.00;;;;;;;8.12;60.20;101125.19;121101;1161;22665;-74
2021/03/24 13:51:32;;;;;;;40.90;33.90;;;;;;;8.11;59.99;101127.00;121147;1161;22577;-75
2021/03/24 13:54:39;;;;;;;35.83;31.95;;;;;;;8.12;59.74;101120.76;121069;1161;22658;-75
2021/03/24 13:57:30;;;;;;;41.43;30.73;;;;;;;8.08;59.63;101118.53;121089;1158;22594;-74
2021/03/24 14:00:41;;;;;;;39.48;33.75;;;;;;;8.08;59.70;101123.80;121171;1158;24794;-75
2021/03/24 14:03:37;;;;;;;48.90;37.80;;;;;;;8.05;59.47;101121.43;121447;1159;22585;-75
2021/03/24 14:06:29;;;;;;;42.00;35.28;;;;;;;8.05;59.44;101127.52;121699;1155;22568;-75
2021/03/24 14:09:06;;;;;;;67.50;58.38;;;;;;;8.08;59.41;101118.53;121678;1155;22567;-75
2021/03/24 14:12:17;;;;;;;45.00;38.88;;;;;;;8.09;59.35;101118.39;122018;1155;22628;-75